WetterOnline ( https://www.wetteronline.de )

Wetter aktuell Pencin

Aktuelles Wetter: Liberec (401m)

6-stündlich | Neueste Meldungen
Ortszeit Temperatur Wetter
Mo, 21.09. 2:00 8.0° C -
So, 20.09. 20:00 12.4° C fast wolkenlos
So, 20.09. 14:00 21.8° C fast wolkenlos
So, 20.09. 8:00 10.7° C leicht bewölkt
So, 20.09. 2:00 9.5° C -
Sa, 19.09. 20:00 12.6° C leicht bewölkt
Sa, 19.09. 14:00 20.7° C leicht bewölkt
Sa, 19.09. 8:00 7.9° C leicht bewölkt
Ortszeit Temperatur Wetter
Mo, 21.09. 7:00 8.1° C -
Mo, 21.09. 6:00 8.1° C -
Mo, 21.09. 5:00 7.0° C -
Mo, 21.09. 4:00 8.0° C -
Mo, 21.09. 3:00 8.2° C -
Mo, 21.09. 2:00 8.0° C -
Ortszeit Relative Feuchte Sichtweite
Mo, 21.09. 2:00 92% 35 km
So, 20.09. 20:00 60% 35 km
So, 20.09. 14:00 35% 40 km
So, 20.09. 8:00 73% 35 km
So, 20.09. 2:00 64% 35 km
Sa, 19.09. 20:00 70% 30 km
Sa, 19.09. 14:00 22% 45 km
Sa, 19.09. 8:00 64% 40 km
Ortszeit Relative Feuchte Sichtweite
Mo, 21.09. 7:00 89% 30 km
Mo, 21.09. 6:00 93% 35 km
Mo, 21.09. 5:00 96% 30 km
Mo, 21.09. 4:00 85% 30 km
Mo, 21.09. 3:00 88% 35 km
Mo, 21.09. 2:00 92% 35 km
Ortszeit Niederschlagsmenge Niederschlagsart
Mo, 21.09. 2:00 0.0 l/m2 in 6 Std. -
So, 20.09. 20:00 0.0 l/m2 in 12 Std. -
So, 20.09. 14:00 0.0 l/m2 in 6 Std. -
So, 20.09. 8:00 0.0 l/m2 in 12 Std. -
So, 20.09. 2:00 0.0 l/m2 in 6 Std. -
Sa, 19.09. 20:00 0.0 l/m2 in 12 Std. -
Sa, 19.09. 14:00 0.0 l/m2 in 6 Std. -
Sa, 19.09. 8:00 0.0 l/m2 in 12 Std. -
Ortszeit Niederschlagsmenge Niederschlagsart
Mo, 21.09. 7:00 0.0 l/m2 in 1 Std. -
Mo, 21.09. 6:00 0.0 l/m2 in 1 Std. -
Mo, 21.09. 5:00 0.0 l/m2 in 1 Std. -
Mo, 21.09. 4:00 0.0 l/m2 in 1 Std. -
Mo, 21.09. 3:00 0.0 l/m2 in 1 Std. -
Mo, 21.09. 2:00 0.0 l/m2 in 1 Std. -
Ortszeit Stärke Spitze Richtung
km/h Bft. km/h Grad Sektor
Mo, 21.09. 2:00 4 1 - 120° SO
So, 20.09. 20:00 4 1 - 90° O
So, 20.09. 14:00 11 2 - 160° S
So, 20.09. 8:00 4 1 - 120° SO
So, 20.09. 2:00 0 0 - - -
Sa, 19.09. 20:00 4 1 - 170° S
Sa, 19.09. 14:00 11 2 - 150° SO
Sa, 19.09. 8:00 7 2 - 100° O
Ortszeit Stärke Spitze Richtung
km/h Bft. km/h Grad Sektor
Mo, 21.09. 7:00 4 1 - 90° O
Mo, 21.09. 6:00 4 1 - 140° SO
Mo, 21.09. 5:00 4 1 - 60° NO
Mo, 21.09. 4:00 4 1 - 80° O
Mo, 21.09. 3:00 4 1 - 130° SO
Mo, 21.09. 2:00 4 1 - 120° SO
Ortszeit Untergrenze Bedeckung Gattung
total tief tief mittel hoch
Mo, 21.09. 2:00 - - - - - -
So, 20.09. 20:00 6000 m 1/8 0/8 - - Ci
So, 20.09. 14:00 6300 m 1/8 0/8 - - Ci
So, 20.09. 8:00 6300 m 2/8 0/8 - - Ci
So, 20.09. 2:00 - - - - - -
Sa, 19.09. 20:00 7500 m 7/8 0/8 - - Ci
Sa, 19.09. 14:00 7200 m 4/8 0/8 - - Ci
Sa, 19.09. 8:00 7200 m 4/8 0/8 - - Ci
Ortszeit Bedeckungsgrad in Achtel und Wolkenuntergrenze
Mo, 21.09. 7:00 -
Mo, 21.09. 6:00 -
Mo, 21.09. 5:00 -
Mo, 21.09. 4:00 -
Mo, 21.09. 3:00 -
Mo, 21.09. 2:00 -
Ortszeit Luftdruck NN (hPa) Tendenz (hPa in 3 Std.)
Mo, 21.09. 2:00 1020 + 0,3
So, 20.09. 20:00 1019 + 0,6
So, 20.09. 14:00 1017 - 1,0
So, 20.09. 8:00 1020 0,0
So, 20.09. 2:00 1021 - 0,6
Sa, 19.09. 20:00 1021 - 0,7
Sa, 19.09. 14:00 1021 - 1,3
Sa, 19.09. 8:00 1025 - 0,8
Ortszeit Luftdruck NN (hPa) Tendenz (hPa in 3 Std.)
Mo, 21.09. 7:00 1019 - 0,1
Mo, 21.09. 6:00 1019 - 0,6
Mo, 21.09. 5:00 1020 - 0,6
Mo, 21.09. 4:00 1020 - 0,6
Mo, 21.09. 3:00 1020 - 0,2
Mo, 21.09. 2:00 1020 + 0,3
Ortszeit Schneehöhe (cm)
Mo, 21.09. 2:00 -
So, 20.09. 20:00 -
So, 20.09. 14:00 -
So, 20.09. 8:00 -
So, 20.09. 2:00 -
Sa, 19.09. 20:00 -
Sa, 19.09. 14:00 -
Sa, 19.09. 8:00 0
Ortszeit Schneehöhe (cm)
Mo, 21.09. 7:00 -
Mo, 21.09. 6:00 -
Mo, 21.09. 5:00 -
Mo, 21.09. 4:00 -
Mo, 21.09. 3:00 -
Mo, 21.09. 2:00 -
Link zu dieser Seite / Seite empfehlen

Das Wetter in ...